sensor_id;sensor_type;location;lat;lon;timestamp;temperature;humidity
67598;DHT22;62026;39.230;9.122;2023-07-20T00:02:24;31.50;43.40
67598;DHT22;62026;39.230;9.122;2023-07-20T00:04:50;31.40;43.60
67598;DHT22;62026;39.230;9.122;2023-07-20T00:07:16;31.40;43.70
67598;DHT22;62026;39.230;9.122;2023-07-20T00:09:42;31.40;44.10
67598;DHT22;62026;39.230;9.122;2023-07-20T00:12:08;31.40;44.40
67598;DHT22;62026;39.230;9.122;2023-07-20T00:14:34;31.30;44.50
67598;DHT22;62026;39.230;9.122;2023-07-20T00:17:00;31.30;43.90
67598;DHT22;62026;39.230;9.122;2023-07-20T00:19:28;31.30;43.00
67598;DHT22;62026;39.230;9.122;2023-07-20T00:21:55;31.20;41.70
67598;DHT22;62026;39.230;9.122;2023-07-20T00:24:21;31.20;40.60
67598;DHT22;62026;39.230;9.122;2023-07-20T00:26:47;31.10;40.10
67598;DHT22;62026;39.230;9.122;2023-07-20T00:29:13;31.00;39.60
67598;DHT22;62026;39.230;9.122;2023-07-20T00:31:40;31.00;38.70
67598;DHT22;62026;39.230;9.122;2023-07-20T00:34:06;31.00;38.10
67598;DHT22;62026;39.230;9.122;2023-07-20T00:36:33;31.00;37.80
67598;DHT22;62026;39.230;9.122;2023-07-20T00:39:01;30.90;37.70
67598;DHT22;62026;39.230;9.122;2023-07-20T00:41:28;30.80;37.50
67598;DHT22;62026;39.230;9.122;2023-07-20T00:43:58;30.80;37.50
67598;DHT22;62026;39.230;9.122;2023-07-20T00:46:24;30.80;37.70
67598;DHT22;62026;39.230;9.122;2023-07-20T00:48:51;30.80;37.90
67598;DHT22;62026;39.230;9.122;2023-07-20T00:51:20;30.80;38.60
67598;DHT22;62026;39.230;9.122;2023-07-20T00:53:47;30.70;39.40
67598;DHT22;62026;39.230;9.122;2023-07-20T00:56:15;30.60;40.60
67598;DHT22;62026;39.230;9.122;2023-07-20T00:58:41;30.60;41.80
67598;DHT22;62026;39.230;9.122;2023-07-20T01:01:07;30.60;43.00
67598;DHT22;62026;39.230;9.122;2023-07-20T01:03:33;30.60;44.00
67598;DHT22;62026;39.230;9.122;2023-07-20T01:14:14;30.50;48.80
67598;DHT22;62026;39.230;9.122;2023-07-20T01:16:42;30.60;49.50
67598;DHT22;62026;39.230;9.122;2023-07-20T01:19:13;30.60;49.80
67598;DHT22;62026;39.230;9.122;2023-07-20T01:21:51;30.50;50.00
67598;DHT22;62026;39.230;9.122;2023-07-20T01:30:30;30.50;49.60
67598;DHT22;62026;39.230;9.122;2023-07-20T01:33:01;30.50;49.00
67598;DHT22;62026;39.230;9.122;2023-07-20T01:35:30;30.50;48.40
67598;DHT22;62026;39.230;9.122;2023-07-20T01:37:58;30.60;47.70
67598;DHT22;62026;39.230;9.122;2023-07-20T01:40:25;30.60;47.20
67598;DHT22;62026;39.230;9.122;2023-07-20T01:42:52;30.60;46.40
67598;DHT22;62026;39.230;9.122;2023-07-20T01:45:19;30.60;45.70
67598;DHT22;62026;39.230;9.122;2023-07-20T01:47:45;30.60;45.00
67598;DHT22;62026;39.230;9.122;2023-07-20T01:50:11;30.60;44.40
67598;DHT22;62026;39.230;9.122;2023-07-20T01:52:37;30.50;43.80
67598;DHT22;62026;39.230;9.122;2023-07-20T01:55:03;30.50;43.50
67598;DHT22;62026;39.230;9.122;2023-07-20T01:57:31;30.50;42.70
67598;DHT22;62026;39.230;9.122;2023-07-20T01:59:57;30.60;42.40
67598;DHT22;62026;39.230;9.122;2023-07-20T02:02:26;30.50;42.40
67598;DHT22;62026;39.230;9.122;2023-07-20T02:04:56;30.50;42.30
67598;DHT22;62026;39.230;9.122;2023-07-20T02:07:22;30.50;42.50
67598;DHT22;62026;39.230;9.122;2023-07-20T02:09:48;30.50;42.70
67598;DHT22;62026;39.230;9.122;2023-07-20T02:12:14;30.40;42.90
67598;DHT22;62026;39.230;9.122;2023-07-20T02:14:40;30.40;43.00
67598;DHT22;62026;39.230;9.122;2023-07-20T02:17:06;30.40;43.00
67598;DHT22;62026;39.230;9.122;2023-07-20T02:19:33;30.40;42.90
67598;DHT22;62026;39.230;9.122;2023-07-20T02:21:59;30.30;42.80
67598;DHT22;62026;39.230;9.122;2023-07-20T02:24:25;30.40;42.60
67598;DHT22;62026;39.230;9.122;2023-07-20T02:26:51;30.30;42.60
67598;DHT22;62026;39.230;9.122;2023-07-20T02:29:17;30.30;42.60
67598;DHT22;62026;39.230;9.122;2023-07-20T02:31:43;30.20;42.60
67598;DHT22;62026;39.230;9.122;2023-07-20T02:34:09;30.10;42.70
67598;DHT22;62026;39.230;9.122;2023-07-20T02:36:35;30.10;42.90
67598;DHT22;62026;39.230;9.122;2023-07-20T02:39:02;30.00;43.20
67598;DHT22;62026;39.230;9.122;2023-07-20T02:41:32;30.00;43.60
67598;DHT22;62026;39.230;9.122;2023-07-20T02:43:58;30.10;43.60
67598;DHT22;62026;39.230;9.122;2023-07-20T02:46:25;30.00;43.50
67598;DHT22;62026;39.230;9.122;2023-07-20T02:48:51;30.00;43.10
67598;DHT22;62026;39.230;9.122;2023-07-20T02:51:17;30.00;42.80
67598;DHT22;62026;39.230;9.122;2023-07-20T02:53:43;30.00;42.10
67598;DHT22;62026;39.230;9.122;2023-07-20T02:56:09;30.00;41.40
67598;DHT22;62026;39.230;9.122;2023-07-20T02:58:35;29.90;40.70
67598;DHT22;62026;39.230;9.122;2023-07-20T03:01:04;30.00;39.80
67598;DHT22;62026;39.230;9.122;2023-07-20T03:03:30;30.00;38.90
67598;DHT22;62026;39.230;9.122;2023-07-20T03:05:56;30.00;38.70
67598;DHT22;62026;39.230;9.122;2023-07-20T03:08:24;29.90;39.20
67598;DHT22;62026;39.230;9.122;2023-07-20T03:10:50;30.00;40.10
67598;DHT22;62026;39.230;9.122;2023-07-20T03:13:16;30.00;41.30
67598;DHT22;62026;39.230;9.122;2023-07-20T03:15:43;29.90;42.00
67598;DHT22;62026;39.230;9.122;2023-07-20T03:18:09;30.00;42.30
67598;DHT22;62026;39.230;9.122;2023-07-20T03:20:35;30.00;42.50
67598;DHT22;62026;39.230;9.122;2023-07-20T03:23:02;29.90;42.80
67598;DHT22;62026;39.230;9.122;2023-07-20T03:25:28;29.90;42.80
67598;DHT22;62026;39.230;9.122;2023-07-20T03:27:54;29.90;42.70
67598;DHT22;62026;39.230;9.122;2023-07-20T03:30:21;29.90;42.50
67598;DHT22;62026;39.230;9.122;2023-07-20T03:32:47;29.90;42.30
67598;DHT22;62026;39.230;9.122;2023-07-20T03:35:14;29.90;42.30
67598;DHT22;62026;39.230;9.122;2023-07-20T03:37:41;29.90;42.30
67598;DHT22;62026;39.230;9.122;2023-07-20T03:40:08;29.90;42.20
67598;DHT22;62026;39.230;9.122;2023-07-20T03:42:34;29.80;42.40
67598;DHT22;62026;39.230;9.122;2023-07-20T03:45:00;29.90;42.20
67598;DHT22;62026;39.230;9.122;2023-07-20T03:47:26;29.80;42.20
67598;DHT22;62026;39.230;9.122;2023-07-20T03:49:52;29.80;42.10
67598;DHT22;62026;39.230;9.122;2023-07-20T03:52:18;29.80;42.10
67598;DHT22;62026;39.230;9.122;2023-07-20T03:54:44;29.70;42.10
67598;DHT22;62026;39.230;9.122;2023-07-20T03:57:11;29.70;42.20
67598;DHT22;62026;39.230;9.122;2023-07-20T03:59:39;29.70;42.30
67598;DHT22;62026;39.230;9.122;2023-07-20T04:02:06;29.70;42.40
67598;DHT22;62026;39.230;9.122;2023-07-20T04:04:32;29.70;42.50
67598;DHT22;62026;39.230;9.122;2023-07-20T04:06:57;29.60;42.90
67598;DHT22;62026;39.230;9.122;2023-07-20T04:09:23;29.60;43.20
67598;DHT22;62026;39.230;9.122;2023-07-20T04:11:49;29.50;43.80
67598;DHT22;62026;39.230;9.122;2023-07-20T04:14:15;29.40;44.60
67598;DHT22;62026;39.230;9.122;2023-07-20T04:16:41;29.40;45.70
67598;DHT22;62026;39.230;9.122;2023-07-20T04:19:07;29.50;46.40
67598;DHT22;62026;39.230;9.122;2023-07-20T04:21:40;29.40;47.60
67598;DHT22;62026;39.230;9.122;2023-07-20T04:24:09;29.30;48.50
67598;DHT22;62026;39.230;9.122;2023-07-20T04:26:35;29.40;49.70
67598;DHT22;62026;39.230;9.122;2023-07-20T04:29:02;29.40;50.30
67598;DHT22;62026;39.230;9.122;2023-07-20T04:31:35;29.40;51.10
67598;DHT22;62026;39.230;9.122;2023-07-20T04:34:02;29.40;51.40
67598;DHT22;62026;39.230;9.122;2023-07-20T04:36:29;29.40;52.00
67598;DHT22;62026;39.230;9.122;2023-07-20T04:38:55;29.40;52.40
67598;DHT22;62026;39.230;9.122;2023-07-20T04:41:22;29.40;52.90
67598;DHT22;62026;39.230;9.122;2023-07-20T04:43:50;29.30;53.40
67598;DHT22;62026;39.230;9.122;2023-07-20T04:46:23;29.30;54.80
67598;DHT22;62026;39.230;9.122;2023-07-20T04:48:50;29.40;55.50
67598;DHT22;62026;39.230;9.122;2023-07-20T04:51:16;29.30;56.40
67598;DHT22;62026;39.230;9.122;2023-07-20T04:53:49;29.30;57.20
67598;DHT22;62026;39.230;9.122;2023-07-20T04:56:15;29.40;57.30
67598;DHT22;62026;39.230;9.122;2023-07-20T04:58:41;29.30;57.90
67598;DHT22;62026;39.230;9.122;2023-07-20T05:01:08;29.30;57.80
67598;DHT22;62026;39.230;9.122;2023-07-20T05:03:35;29.30;57.80
67598;DHT22;62026;39.230;9.122;2023-07-20T05:06:01;29.30;58.00
67598;DHT22;62026;39.230;9.122;2023-07-20T05:08:27;29.20;58.20
67598;DHT22;62026;39.230;9.122;2023-07-20T05:10:54;29.10;58.50
67598;DHT22;62026;39.230;9.122;2023-07-20T05:13:20;29.20;58.00
67598;DHT22;62026;39.230;9.122;2023-07-20T05:15:51;29.30;57.40
67598;DHT22;62026;39.230;9.122;2023-07-20T05:18:19;29.40;57.10
67598;DHT22;62026;39.230;9.122;2023-07-20T05:20:47;29.30;57.30
67598;DHT22;62026;39.230;9.122;2023-07-20T05:23:17;29.30;57.60
67598;DHT22;62026;39.230;9.122;2023-07-20T05:25:45;29.40;57.70
67598;DHT22;62026;39.230;9.122;2023-07-20T05:28:12;29.40;57.40
67598;DHT22;62026;39.230;9.122;2023-07-20T05:30:38;29.40;57.20
67598;DHT22;62026;39.230;9.122;2023-07-20T05:33:04;29.50;57.20
67598;DHT22;62026;39.230;9.122;2023-07-20T05:35:30;29.50;57.00
67598;DHT22;62026;39.230;9.122;2023-07-20T05:37:55;29.50;56.60
67598;DHT22;62026;39.230;9.122;2023-07-20T05:40:22;29.50;56.20
67598;DHT22;62026;39.230;9.122;2023-07-20T05:42:48;29.50;56.00
67598;DHT22;62026;39.230;9.122;2023-07-20T05:45:17;29.50;55.60
67598;DHT22;62026;39.230;9.122;2023-07-20T05:47:44;29.60;55.20
67598;DHT22;62026;39.230;9.122;2023-07-20T05:50:10;29.60;55.10
67598;DHT22;62026;39.230;9.122;2023-07-20T05:52:37;29.60;55.10
67598;DHT22;62026;39.230;9.122;2023-07-20T05:55:05;29.70;54.90
67598;DHT22;62026;39.230;9.122;2023-07-20T05:57:31;29.70;54.60
67598;DHT22;62026;39.230;9.122;2023-07-20T05:59:58;29.70;54.60
67598;DHT22;62026;39.230;9.122;2023-07-20T06:02:24;29.70;54.20
67598;DHT22;62026;39.230;9.122;2023-07-20T06:04:50;29.70;54.10
67598;DHT22;62026;39.230;9.122;2023-07-20T06:07:16;29.80;53.50
67598;DHT22;62026;39.230;9.122;2023-07-20T06:09:42;29.80;52.90
67598;DHT22;62026;39.230;9.122;2023-07-20T06:12:08;29.80;52.40
67598;DHT22;62026;39.230;9.122;2023-07-20T06:14:34;29.90;51.80
67598;DHT22;62026;39.230;9.122;2023-07-20T06:17:00;29.90;51.40
67598;DHT22;62026;39.230;9.122;2023-07-20T06:19:27;29.90;51.10
67598;DHT22;62026;39.230;9.122;2023-07-20T06:21:53;29.90;51.00
67598;DHT22;62026;39.230;9.122;2023-07-20T06:24:19;29.90;50.60
67598;DHT22;62026;39.230;9.122;2023-07-20T06:26:44;30.00;50.10
67598;DHT22;62026;39.230;9.122;2023-07-20T06:29:11;30.00;49.90
67598;DHT22;62026;39.230;9.122;2023-07-20T06:31:37;30.00;49.80
67598;DHT22;62026;39.230;9.122;2023-07-20T06:34:04;30.00;49.50
67598;DHT22;62026;39.230;9.122;2023-07-20T06:36:30;30.10;49.30
67598;DHT22;62026;39.230;9.122;2023-07-20T06:38:56;30.10;48.90
67598;DHT22;62026;39.230;9.122;2023-07-20T06:41:22;30.30;48.00
67598;DHT22;62026;39.230;9.122;2023-07-20T06:43:48;30.80;46.70
67598;DHT22;62026;39.230;9.122;2023-07-20T06:46:14;31.10;45.80
67598;DHT22;62026;39.230;9.122;2023-07-20T06:48:40;31.40;45.40
67598;DHT22;62026;39.230;9.122;2023-07-20T06:51:06;31.60;45.10
67598;DHT22;62026;39.230;9.122;2023-07-20T06:53:32;31.70;45.50
67598;DHT22;62026;39.230;9.122;2023-07-20T06:55:58;31.80;45.70
67598;DHT22;62026;39.230;9.122;2023-07-20T06:58:24;31.90;45.80
67598;DHT22;62026;39.230;9.122;2023-07-20T07:00:51;31.90;45.60
67598;DHT22;62026;39.230;9.122;2023-07-20T07:03:17;32.10;44.80
67598;DHT22;62026;39.230;9.122;2023-07-20T07:05:44;32.20;43.80
67598;DHT22;62026;39.230;9.122;2023-07-20T07:08:11;32.30;43.00
67598;DHT22;62026;39.230;9.122;2023-07-20T07:10:38;32.40;42.20
67598;DHT22;62026;39.230;9.122;2023-07-20T07:13:04;32.50;41.70
67598;DHT22;62026;39.230;9.122;2023-07-20T07:15:30;32.40;41.70
67598;DHT22;62026;39.230;9.122;2023-07-20T07:17:56;32.50;41.60
67598;DHT22;62026;39.230;9.122;2023-07-20T07:20:24;32.60;41.60
67598;DHT22;62026;39.230;9.122;2023-07-20T07:22:51;32.60;41.40
67598;DHT22;62026;39.230;9.122;2023-07-20T07:25:18;32.80;40.80
67598;DHT22;62026;39.230;9.122;2023-07-20T07:27:45;32.90;40.50
67598;DHT22;62026;39.230;9.122;2023-07-20T07:30:11;33.00;40.40
67598;DHT22;62026;39.230;9.122;2023-07-20T07:32:38;33.00;40.30
67598;DHT22;62026;39.230;9.122;2023-07-20T07:35:04;33.10;40.10
67598;DHT22;62026;39.230;9.122;2023-07-20T07:37:31;33.30;40.00
67598;DHT22;62026;39.230;9.122;2023-07-20T07:39:57;33.20;40.40
67598;DHT22;62026;39.230;9.122;2023-07-20T07:42:23;33.30;40.50
67598;DHT22;62026;39.230;9.122;2023-07-20T07:44:49;33.40;40.40
67598;DHT22;62026;39.230;9.122;2023-07-20T07:47:15;33.50;40.40
67598;DHT22;62026;39.230;9.122;2023-07-20T07:49:41;33.70;40.20
67598;DHT22;62026;39.230;9.122;2023-07-20T07:52:08;33.80;40.00
67598;DHT22;62026;39.230;9.122;2023-07-20T07:54:34;33.80;39.30
67598;DHT22;62026;39.230;9.122;2023-07-20T07:57:01;33.90;39.20
67598;DHT22;62026;39.230;9.122;2023-07-20T07:59:26;34.10;38.20
67598;DHT22;62026;39.230;9.122;2023-07-20T08:01:53;34.20;38.00
67598;DHT22;62026;39.230;9.122;2023-07-20T08:04:19;34.30;37.80
67598;DHT22;62026;39.230;9.122;2023-07-20T08:06:45;34.40;37.90
67598;DHT22;62026;39.230;9.122;2023-07-20T08:09:11;34.50;37.90
67598;DHT22;62026;39.230;9.122;2023-07-20T08:11:39;34.60;37.90
67598;DHT22;62026;39.230;9.122;2023-07-20T08:14:05;34.60;38.00
67598;DHT22;62026;39.230;9.122;2023-07-20T08:16:31;34.70;37.90
67598;DHT22;62026;39.230;9.122;2023-07-20T08:18:57;34.80;37.80
67598;DHT22;62026;39.230;9.122;2023-07-20T08:21:23;34.90;38.30
67598;DHT22;62026;39.230;9.122;2023-07-20T08:23:49;35.10;38.20
67598;DHT22;62026;39.230;9.122;2023-07-20T08:26:15;35.20;36.80
67598;DHT22;62026;39.230;9.122;2023-07-20T08:28:43;35.30;37.40
67598;DHT22;62026;39.230;9.122;2023-07-20T08:31:10;35.40;36.90
67598;DHT22;62026;39.230;9.122;2023-07-20T08:33:36;35.50;36.90
67598;DHT22;62026;39.230;9.122;2023-07-20T08:36:02;35.60;37.00
67598;DHT22;62026;39.230;9.122;2023-07-20T08:38:29;35.60;37.00
67598;DHT22;62026;39.230;9.122;2023-07-20T08:40:55;35.70;36.80
67598;DHT22;62026;39.230;9.122;2023-07-20T08:43:22;35.70;36.60
67598;DHT22;62026;39.230;9.122;2023-07-20T08:45:54;35.80;36.30
67598;DHT22;62026;39.230;9.122;2023-07-20T08:48:24;35.90;35.10
67598;DHT22;62026;39.230;9.122;2023-07-20T08:50:53;36.00;35.40
67598;DHT22;62026;39.230;9.122;2023-07-20T08:53:20;36.10;35.90
67598;DHT22;62026;39.230;9.122;2023-07-20T08:55:50;36.30;35.80
67598;DHT22;62026;39.230;9.122;2023-07-20T08:58:18;36.40;36.00
67598;DHT22;62026;39.230;9.122;2023-07-20T09:00:44;36.60;35.80
67598;DHT22;62026;39.230;9.122;2023-07-20T09:03:12;36.80;36.00
67598;DHT22;62026;39.230;9.122;2023-07-20T09:05:40;36.70;35.90
67598;DHT22;62026;39.230;9.122;2023-07-20T09:08:06;36.90;35.50
67598;DHT22;62026;39.230;9.122;2023-07-20T09:10:33;37.00;35.00
67598;DHT22;62026;39.230;9.122;2023-07-20T09:12:59;37.10;34.40
67598;DHT22;62026;39.230;9.122;2023-07-20T09:15:25;37.20;34.30
67598;DHT22;62026;39.230;9.122;2023-07-20T09:17:51;37.10;34.60
67598;DHT22;62026;39.230;9.122;2023-07-20T09:20:19;37.20;34.80
67598;DHT22;62026;39.230;9.122;2023-07-20T09:22:46;37.40;35.20
67598;DHT22;62026;39.230;9.122;2023-07-20T09:25:14;37.50;35.10
67598;DHT22;62026;39.230;9.122;2023-07-20T09:27:51;37.60;33.30
67598;DHT22;62026;39.230;9.122;2023-07-20T09:30:17;37.70;33.00
67598;DHT22;62026;39.230;9.122;2023-07-20T09:32:49;37.70;32.10
67598;DHT22;62026;39.230;9.122;2023-07-20T09:35:21;37.60;31.70
67598;DHT22;62026;39.230;9.122;2023-07-20T09:37:52;37.60;31.70
67598;DHT22;62026;39.230;9.122;2023-07-20T09:40:25;38.10;31.20
67598;DHT22;62026;39.230;9.122;2023-07-20T09:42:53;38.10;31.30
67598;DHT22;62026;39.230;9.122;2023-07-20T09:45:39;38.10;31.80
67598;DHT22;62026;39.230;9.122;2023-07-20T09:48:10;38.00;31.80
67598;DHT22;62026;39.230;9.122;2023-07-20T09:50:48;38.20;31.30
67598;DHT22;62026;39.230;9.122;2023-07-20T09:53:17;38.30;30.70
67598;DHT22;62026;39.230;9.122;2023-07-20T09:55:47;38.30;30.60
67598;DHT22;62026;39.230;9.122;2023-07-20T09:58:14;38.50;29.60
67598;DHT22;62026;39.230;9.122;2023-07-20T10:00:42;38.40;28.90
67598;DHT22;62026;39.230;9.122;2023-07-20T10:03:16;38.40;28.50
67598;DHT22;62026;39.230;9.122;2023-07-20T10:05:54;38.40;28.30
67598;DHT22;62026;39.230;9.122;2023-07-20T10:08:24;38.30;27.80
67598;DHT22;62026;39.230;9.122;2023-07-20T10:10:51;38.30;28.70
67598;DHT22;62026;39.230;9.122;2023-07-20T10:13:20;38.20;28.50
67598;DHT22;62026;39.230;9.122;2023-07-20T10:15:53;38.20;28.00
67598;DHT22;62026;39.230;9.122;2023-07-20T10:18:25;38.20;28.00
67598;DHT22;62026;39.230;9.122;2023-07-20T10:20:56;38.20;27.80
67598;DHT22;62026;39.230;9.122;2023-07-20T10:23:28;38.10;27.50
67598;DHT22;62026;39.230;9.122;2023-07-20T10:25:56;38.20;27.50
67598;DHT22;62026;39.230;9.122;2023-07-20T10:28:24;38.20;27.90
67598;DHT22;62026;39.230;9.122;2023-07-20T10:30:51;38.20;27.60
67598;DHT22;62026;39.230;9.122;2023-07-20T10:33:17;38.50;26.90
67598;DHT22;62026;39.230;9.122;2023-07-20T10:36:11;38.50;27.30
67598;DHT22;62026;39.230;9.122;2023-07-20T10:41:37;38.80;25.80
67598;DHT22;62026;39.230;9.122;2023-07-20T10:44:09;39.00;25.80
67598;DHT22;62026;39.230;9.122;2023-07-20T10:49:07;39.30;25.30
67598;DHT22;62026;39.230;9.122;2023-07-20T10:51:48;39.20;25.70
67598;DHT22;62026;39.230;9.122;2023-07-20T10:56:45;39.00;25.80
67598;DHT22;62026;39.230;9.122;2023-07-20T10:59:41;39.20;25.30
67598;DHT22;62026;39.230;9.122;2023-07-20T11:02:07;39.20;24.90
67598;DHT22;62026;39.230;9.122;2023-07-20T11:04:45;39.20;25.40
67598;DHT22;62026;39.230;9.122;2023-07-20T11:07:17;39.10;25.40
67598;DHT22;62026;39.230;9.122;2023-07-20T11:10:15;39.10;24.20
67598;DHT22;62026;39.230;9.122;2023-07-20T11:18:27;39.00;24.00
67598;DHT22;62026;39.230;9.122;2023-07-20T11:20:53;38.90;24.20
67598;DHT22;62026;39.230;9.122;2023-07-20T11:23:20;39.20;24.60
67598;DHT22;62026;39.230;9.122;2023-07-20T11:25:46;39.00;24.80
67598;DHT22;62026;39.230;9.122;2023-07-20T11:28:12;38.90;25.30
67598;DHT22;62026;39.230;9.122;2023-07-20T11:30:38;39.00;25.50
67598;DHT22;62026;39.230;9.122;2023-07-20T11:33:05;39.00;25.80
67598;DHT22;62026;39.230;9.122;2023-07-20T11:35:42;39.00;26.30
67598;DHT22;62026;39.230;9.122;2023-07-20T11:38:16;39.10;26.80
67598;DHT22;62026;39.230;9.122;2023-07-20T11:40:46;39.10;27.00
67598;DHT22;62026;39.230;9.122;2023-07-20T11:43:13;39.10;27.30
67598;DHT22;62026;39.230;9.122;2023-07-20T11:45:39;39.00;27.50
67598;DHT22;62026;39.230;9.122;2023-07-20T11:48:06;39.10;27.60
67598;DHT22;62026;39.230;9.122;2023-07-20T11:50:32;39.00;27.50
67598;DHT22;62026;39.230;9.122;2023-07-20T11:52:58;39.00;27.70
67598;DHT22;62026;39.230;9.122;2023-07-20T11:55:24;39.00;28.10
67598;DHT22;62026;39.230;9.122;2023-07-20T11:58:05;39.00;27.90
67598;DHT22;62026;39.230;9.122;2023-07-20T12:00:38;39.00;28.40
67598;DHT22;62026;39.230;9.122;2023-07-20T12:03:07;39.00;28.50
67598;DHT22;62026;39.230;9.122;2023-07-20T12:05:34;39.20;28.20
67598;DHT22;62026;39.230;9.122;2023-07-20T12:08:00;39.70;29.40
67598;DHT22;62026;39.230;9.122;2023-07-20T12:10:28;39.40;34.10
67598;DHT22;62026;39.230;9.122;2023-07-20T12:12:54;38.90;34.90
67598;DHT22;62026;39.230;9.122;2023-07-20T12:15:25;38.60;35.70
67598;DHT22;62026;39.230;9.122;2023-07-20T12:17:53;38.50;35.70
67598;DHT22;62026;39.230;9.122;2023-07-20T12:20:26;38.50;35.50
67598;DHT22;62026;39.230;9.122;2023-07-20T12:23:01;38.60;36.30
67598;DHT22;62026;39.230;9.122;2023-07-20T12:25:41;38.90;36.00
67598;DHT22;62026;39.230;9.122;2023-07-20T12:28:16;38.60;36.10
67598;DHT22;62026;39.230;9.122;2023-07-20T12:30:44;38.30;36.00
67598;DHT22;62026;39.230;9.122;2023-07-20T12:33:11;38.20;36.40
67598;DHT22;62026;39.230;9.122;2023-07-20T12:35:41;38.40;36.60
67598;DHT22;62026;39.230;9.122;2023-07-20T12:38:08;38.60;37.20
67598;DHT22;62026;39.230;9.122;2023-07-20T12:40:34;38.50;37.00
67598;DHT22;62026;39.230;9.122;2023-07-20T12:43:01;38.50;37.70
67598;DHT22;62026;39.230;9.122;2023-07-20T12:45:28;38.50;37.70
67598;DHT22;62026;39.230;9.122;2023-07-20T12:47:54;38.40;36.80
67598;DHT22;62026;39.230;9.122;2023-07-20T12:50:20;38.20;36.90
67598;DHT22;62026;39.230;9.122;2023-07-20T12:52:46;38.00;37.20
67598;DHT22;62026;39.230;9.122;2023-07-20T12:55:12;38.00;37.60
67598;DHT22;62026;39.230;9.122;2023-07-20T12:57:38;37.90;38.20
67598;DHT22;62026;39.230;9.122;2023-07-20T13:00:08;38.00;38.60
67598;DHT22;62026;39.230;9.122;2023-07-20T13:02:35;38.00;37.80
67598;DHT22;62026;39.230;9.122;2023-07-20T13:05:02;38.00;37.70
67598;DHT22;62026;39.230;9.122;2023-07-20T13:07:37;38.00;39.50
67598;DHT22;62026;39.230;9.122;2023-07-20T13:10:04;37.60;45.60
67598;DHT22;62026;39.230;9.122;2023-07-20T13:12:32;37.20;50.20
67598;DHT22;62026;39.230;9.122;2023-07-20T13:15:01;36.40;50.50
67598;DHT22;62026;39.230;9.122;2023-07-20T13:17:32;36.40;50.20
67598;DHT22;62026;39.230;9.122;2023-07-20T13:19:59;36.40;50.80
67598;DHT22;62026;39.230;9.122;2023-07-20T13:22:24;36.30;49.80
67598;DHT22;62026;39.230;9.122;2023-07-20T13:24:50;36.10;52.20
67598;DHT22;62026;39.230;9.122;2023-07-20T13:27:18;35.90;51.80
67598;DHT22;62026;39.230;9.122;2023-07-20T13:29:45;35.80;51.90
67598;DHT22;62026;39.230;9.122;2023-07-20T13:32:15;35.80;53.00
67598;DHT22;62026;39.230;9.122;2023-07-20T13:34:41;35.60;52.90
67598;DHT22;62026;39.230;9.122;2023-07-20T13:37:08;35.60;52.40
67598;DHT22;62026;39.230;9.122;2023-07-20T13:39:35;35.50;54.20
67598;DHT22;62026;39.230;9.122;2023-07-20T13:42:00;35.40;52.90
67598;DHT22;62026;39.230;9.122;2023-07-20T13:44:31;35.40;53.90
67598;DHT22;62026;39.230;9.122;2023-07-20T13:46:57;35.20;54.90
67598;DHT22;62026;39.230;9.122;2023-07-20T13:49:24;35.20;55.40
67598;DHT22;62026;39.230;9.122;2023-07-20T13:51:50;35.00;55.80
67598;DHT22;62026;39.230;9.122;2023-07-20T13:54:16;34.90;55.60
67598;DHT22;62026;39.230;9.122;2023-07-20T13:56:42;35.00;54.90
67598;DHT22;62026;39.230;9.122;2023-07-20T13:59:08;35.00;55.10
67598;DHT22;62026;39.230;9.122;2023-07-20T14:01:34;34.90;56.00
67598;DHT22;62026;39.230;9.122;2023-07-20T14:04:02;34.70;56.50
67598;DHT22;62026;39.230;9.122;2023-07-20T14:06:30;34.60;55.60
67598;DHT22;62026;39.230;9.122;2023-07-20T14:08:57;34.60;56.50
67598;DHT22;62026;39.230;9.122;2023-07-20T14:11:24;34.50;56.10
67598;DHT22;62026;39.230;9.122;2023-07-20T14:13:51;34.60;56.30
67598;DHT22;62026;39.230;9.122;2023-07-20T14:16:21;34.60;57.10
67598;DHT22;62026;39.230;9.122;2023-07-20T14:18:48;34.60;56.40
67598;DHT22;62026;39.230;9.122;2023-07-20T14:21:18;34.40;56.60
67598;DHT22;62026;39.230;9.122;2023-07-20T14:23:47;34.30;57.80
67598;DHT22;62026;39.230;9.122;2023-07-20T14:26:14;34.30;56.60
67598;DHT22;62026;39.230;9.122;2023-07-20T14:28:40;34.30;56.90
67598;DHT22;62026;39.230;9.122;2023-07-20T14:31:06;34.40;56.80
67598;DHT22;62026;39.230;9.122;2023-07-20T14:33:32;34.40;56.30
67598;DHT22;62026;39.230;9.122;2023-07-20T14:35:58;34.50;55.20
67598;DHT22;62026;39.230;9.122;2023-07-20T14:38:36;34.60;54.80
67598;DHT22;62026;39.230;9.122;2023-07-20T14:41:03;34.60;55.70
67598;DHT22;62026;39.230;9.122;2023-07-20T14:43:31;34.60;55.10
67598;DHT22;62026;39.230;9.122;2023-07-20T14:45:57;34.50;55.10
67598;DHT22;62026;39.230;9.122;2023-07-20T14:48:23;34.60;55.00
67598;DHT22;62026;39.230;9.122;2023-07-20T14:50:49;34.70;54.80
67598;DHT22;62026;39.230;9.122;2023-07-20T14:53:15;34.80;54.60
67598;DHT22;62026;39.230;9.122;2023-07-20T14:55:42;34.90;54.20
67598;DHT22;62026;39.230;9.122;2023-07-20T14:58:08;34.80;55.10
67598;DHT22;62026;39.230;9.122;2023-07-20T15:00:34;34.90;55.00
67598;DHT22;62026;39.230;9.122;2023-07-20T15:03:00;34.80;55.30
67598;DHT22;62026;39.230;9.122;2023-07-20T15:05:26;34.80;54.80
67598;DHT22;62026;39.230;9.122;2023-07-20T15:07:52;34.70;54.50
67598;DHT22;62026;39.230;9.122;2023-07-20T15:10:19;34.70;54.20
67598;DHT22;62026;39.230;9.122;2023-07-20T15:12:45;34.50;55.20
67598;DHT22;62026;39.230;9.122;2023-07-20T15:15:13;34.50;55.60
67598;DHT22;62026;39.230;9.122;2023-07-20T15:17:42;34.50;55.30
67598;DHT22;62026;39.230;9.122;2023-07-20T15:20:11;34.60;55.10
67598;DHT22;62026;39.230;9.122;2023-07-20T15:22:39;34.70;54.60
67598;DHT22;62026;39.230;9.122;2023-07-20T15:25:07;34.70;54.50
67598;DHT22;62026;39.230;9.122;2023-07-20T15:27:34;34.60;55.00
67598;DHT22;62026;39.230;9.122;2023-07-20T15:30:00;34.60;55.70
67598;DHT22;62026;39.230;9.122;2023-07-20T15:32:26;34.70;55.40
67598;DHT22;62026;39.230;9.122;2023-07-20T15:34:52;34.70;54.90
67598;DHT22;62026;39.230;9.122;2023-07-20T15:37:19;34.80;55.20
67598;DHT22;62026;39.230;9.122;2023-07-20T15:39:49;34.80;54.90
67598;DHT22;62026;39.230;9.122;2023-07-20T15:42:16;34.80;54.80
67598;DHT22;62026;39.230;9.122;2023-07-20T15:44:42;34.90;54.50
67598;DHT22;62026;39.230;9.122;2023-07-20T15:47:08;35.10;53.50
67598;DHT22;62026;39.230;9.122;2023-07-20T15:49:34;35.10;52.90
67598;DHT22;62026;39.230;9.122;2023-07-20T15:52:00;35.10;52.30
67598;DHT22;62026;39.230;9.122;2023-07-20T15:54:26;35.20;52.40
67598;DHT22;62026;39.230;9.122;2023-07-20T15:56:52;35.30;52.10
67598;DHT22;62026;39.230;9.122;2023-07-20T15:59:19;35.30;45.10
67598;DHT22;62026;39.230;9.122;2023-07-20T16:01:45;35.40;43.10